sensor_id;sensor_type;location;lat;lon;timestamp;P1;durP1;ratioP1;P2;durP2;ratioP2
15381;SDS011;7789;51.364;12.358;2023-12-20T00:02:39;3.20;;;2.90;;
15381;SDS011;7789;51.364;12.358;2023-12-20T00:07:42;3.50;;;3.20;;
15381;SDS011;7789;51.364;12.358;2023-12-20T00:12:47;3.43;;;3.10;;
15381;SDS011;7789;51.364;12.358;2023-12-20T00:17:52;3.33;;;3.00;;
15381;SDS011;7789;51.364;12.358;2023-12-20T00:22:56;4.73;;;3.50;;
15381;SDS011;7789;51.364;12.358;2023-12-20T00:28:00;3.27;;;2.70;;
15381;SDS011;7789;51.364;12.358;2023-12-20T00:33:05;3.77;;;3.10;;
15381;SDS011;7789;51.364;12.358;2023-12-20T00:38:09;4.00;;;2.63;;
15381;SDS011;7789;51.364;12.358;2023-12-20T00:43:13;2.87;;;2.57;;
15381;SDS011;7789;51.364;12.358;2023-12-20T00:48:17;2.50;;;2.30;;
15381;SDS011;7789;51.364;12.358;2023-12-20T00:53:21;4.30;;;2.50;;
15381;SDS011;7789;51.364;12.358;2023-12-20T00:58:24;2.50;;;2.30;;
15381;SDS011;7789;51.364;12.358;2023-12-20T01:03:29;2.60;;;2.03;;
15381;SDS011;7789;51.364;12.358;2023-12-20T01:08:33;2.47;;;2.27;;
15381;SDS011;7789;51.364;12.358;2023-12-20T01:13:38;2.73;;;2.00;;
15381;SDS011;7789;51.364;12.358;2023-12-20T01:18:46;2.87;;;2.50;;
15381;SDS011;7789;51.364;12.358;2023-12-20T01:23:51;2.27;;;1.80;;
15381;SDS011;7789;51.364;12.358;2023-12-20T01:28:57;2.27;;;1.90;;
15381;SDS011;7789;51.364;12.358;2023-12-20T01:34:05;1.80;;;1.67;;
15381;SDS011;7789;51.364;12.358;2023-12-20T01:39:16;2.03;;;1.57;;
15381;SDS011;7789;51.364;12.358;2023-12-20T01:44:30;2.23;;;1.50;;
15381;SDS011;7789;51.364;12.358;2023-12-20T01:49:35;1.60;;;1.50;;
15381;SDS011;7789;51.364;12.358;2023-12-20T01:54:39;1.70;;;1.50;;
15381;SDS011;7789;51.364;12.358;2023-12-20T01:59:45;1.63;;;1.50;;
15381;SDS011;7789;51.364;12.358;2023-12-20T02:04:50;3.43;;;1.80;;
15381;SDS011;7789;51.364;12.358;2023-12-20T02:09:54;1.93;;;1.60;;
15381;SDS011;7789;51.364;12.358;2023-12-20T02:14:58;2.13;;;1.70;;
15381;SDS011;7789;51.364;12.358;2023-12-20T02:20:08;1.23;;;1.10;;
15381;SDS011;7789;51.364;12.358;2023-12-20T02:25:18;4.37;;;1.50;;
15381;SDS011;7789;51.364;12.358;2023-12-20T02:30:22;3.10;;;1.40;;
15381;SDS011;7789;51.364;12.358;2023-12-20T02:35:26;1.83;;;1.30;;
15381;SDS011;7789;51.364;12.358;2023-12-20T02:40:31;1.33;;;1.23;;
15381;SDS011;7789;51.364;12.358;2023-12-20T02:45:35;1.47;;;1.27;;
15381;SDS011;7789;51.364;12.358;2023-12-20T02:50:38;2.00;;;1.30;;
15381;SDS011;7789;51.364;12.358;2023-12-20T02:55:43;1.63;;;1.40;;
15381;SDS011;7789;51.364;12.358;2023-12-20T03:00:47;1.80;;;1.33;;
15381;SDS011;7789;51.364;12.358;2023-12-20T03:05:50;1.73;;;1.53;;
15381;SDS011;7789;51.364;12.358;2023-12-20T03:10:56;1.47;;;1.20;;
15381;SDS011;7789;51.364;12.358;2023-12-20T03:15:59;1.57;;;1.40;;
15381;SDS011;7789;51.364;12.358;2023-12-20T03:21:03;1.80;;;1.60;;
15381;SDS011;7789;51.364;12.358;2023-12-20T03:26:08;1.40;;;1.30;;
15381;SDS011;7789;51.364;12.358;2023-12-20T03:31:12;1.40;;;1.30;;
15381;SDS011;7789;51.364;12.358;2023-12-20T03:36:15;2.40;;;1.30;;
15381;SDS011;7789;51.364;12.358;2023-12-20T03:41:20;3.23;;;1.53;;
15381;SDS011;7789;51.364;12.358;2023-12-20T03:46:23;1.53;;;1.43;;
15381;SDS011;7789;51.364;12.358;2023-12-20T03:51:27;1.67;;;1.50;;
15381;SDS011;7789;51.364;12.358;2023-12-20T03:56:32;1.70;;;1.53;;
15381;SDS011;7789;51.364;12.358;2023-12-20T04:01:35;1.83;;;1.73;;
15381;SDS011;7789;51.364;12.358;2023-12-20T04:06:39;2.30;;;2.10;;
15381;SDS011;7789;51.364;12.358;2023-12-20T04:11:44;3.03;;;2.60;;
15381;SDS011;7789;51.364;12.358;2023-12-20T04:16:48;3.10;;;2.80;;
15381;SDS011;7789;51.364;12.358;2023-12-20T04:21:52;2.97;;;2.63;;
15381;SDS011;7789;51.364;12.358;2023-12-20T04:26:56;3.53;;;2.83;;
15381;SDS011;7789;51.364;12.358;2023-12-20T04:32:00;3.23;;;2.93;;
15381;SDS011;7789;51.364;12.358;2023-12-20T04:37:03;2.63;;;2.43;;
15381;SDS011;7789;51.364;12.358;2023-12-20T04:42:08;4.37;;;3.07;;
15381;SDS011;7789;51.364;12.358;2023-12-20T04:47:11;2.67;;;2.43;;
15381;SDS011;7789;51.364;12.358;2023-12-20T04:52:15;3.43;;;2.73;;
15381;SDS011;7789;51.364;12.358;2023-12-20T04:57:19;3.03;;;2.57;;
15381;SDS011;7789;51.364;12.358;2023-12-20T05:02:23;2.93;;;2.53;;
15381;SDS011;7789;51.364;12.358;2023-12-20T05:07:27;3.33;;;2.73;;
15381;SDS011;7789;51.364;12.358;2023-12-20T05:12:31;2.67;;;2.47;;
15381;SDS011;7789;51.364;12.358;2023-12-20T05:17:35;2.83;;;2.50;;
15381;SDS011;7789;51.364;12.358;2023-12-20T05:22:38;2.50;;;2.30;;
15381;SDS011;7789;51.364;12.358;2023-12-20T05:27:43;2.67;;;2.47;;
15381;SDS011;7789;51.364;12.358;2023-12-20T05:32:46;3.77;;;2.37;;
15381;SDS011;7789;51.364;12.358;2023-12-20T05:37:50;3.17;;;2.83;;
15381;SDS011;7789;51.364;12.358;2023-12-20T05:42:55;3.50;;;2.60;;
15381;SDS011;7789;51.364;12.358;2023-12-20T05:47:58;3.17;;;2.87;;
15381;SDS011;7789;51.364;12.358;2023-12-20T05:53:02;2.80;;;2.60;;
15381;SDS011;7789;51.364;12.358;2023-12-20T05:58:06;2.77;;;2.57;;
15381;SDS011;7789;51.364;12.358;2023-12-20T06:03:10;3.27;;;2.70;;
15381;SDS011;7789;51.364;12.358;2023-12-20T06:08:13;2.50;;;2.30;;
15381;SDS011;7789;51.364;12.358;2023-12-20T06:13:18;2.37;;;2.17;;
15381;SDS011;7789;51.364;12.358;2023-12-20T06:18:21;3.33;;;3.03;;
15381;SDS011;7789;51.364;12.358;2023-12-20T06:23:25;2.40;;;2.20;;
15381;SDS011;7789;51.364;12.358;2023-12-20T06:28:30;6.57;;;4.80;;
15381;SDS011;7789;51.364;12.358;2023-12-20T06:33:34;15.00;;;9.83;;
15381;SDS011;7789;51.364;12.358;2023-12-20T06:38:37;7.37;;;5.73;;
15381;SDS011;7789;51.364;12.358;2023-12-20T06:43:42;4.90;;;4.30;;
15381;SDS011;7789;51.364;12.358;2023-12-20T06:48:51;4.50;;;4.10;;
15381;SDS011;7789;51.364;12.358;2023-12-20T06:53:54;3.30;;;2.80;;
15381;SDS011;7789;51.364;12.358;2023-12-20T06:58:59;2.73;;;2.30;;
15381;SDS011;7789;51.364;12.358;2023-12-20T07:04:02;4.57;;;1.80;;
15381;SDS011;7789;51.364;12.358;2023-12-20T07:09:06;3.57;;;2.20;;
15381;SDS011;7789;51.364;12.358;2023-12-20T07:14:11;2.20;;;2.00;;
15381;SDS011;7789;51.364;12.358;2023-12-20T07:19:14;3.63;;;2.00;;
15381;SDS011;7789;51.364;12.358;2023-12-20T07:24:18;2.77;;;2.10;;
15381;SDS011;7789;51.364;12.358;2023-12-20T07:29:23;4.50;;;1.77;;
15381;SDS011;7789;51.364;12.358;2023-12-20T07:34:26;2.13;;;1.47;;
15381;SDS011;7789;51.364;12.358;2023-12-20T07:39:30;4.50;;;1.50;;
15381;SDS011;7789;51.364;12.358;2023-12-20T07:44:35;2.33;;;1.50;;
15381;SDS011;7789;51.364;12.358;2023-12-20T07:49:38;3.27;;;1.77;;
15381;SDS011;7789;51.364;12.358;2023-12-20T07:54:42;2.00;;;1.27;;
15381;SDS011;7789;51.364;12.358;2023-12-20T07:59:47;4.37;;;1.13;;
15381;SDS011;7789;51.364;12.358;2023-12-20T08:04:51;4.03;;;1.60;;
15381;SDS011;7789;51.364;12.358;2023-12-20T08:09:54;10.47;;;2.23;;
15381;SDS011;7789;51.364;12.358;2023-12-20T08:15:00;5.77;;;1.60;;
15381;SDS011;7789;51.364;12.358;2023-12-20T08:20:04;3.43;;;1.10;;
15381;SDS011;7789;51.364;12.358;2023-12-20T08:25:09;3.67;;;1.27;;
15381;SDS011;7789;51.364;12.358;2023-12-20T08:30:14;3.57;;;1.10;;
15381;SDS011;7789;51.364;12.358;2023-12-20T08:35:18;2.70;;;1.00;;
15381;SDS011;7789;51.364;12.358;2023-12-20T08:40:22;2.67;;;0.80;;
15381;SDS011;7789;51.364;12.358;2023-12-20T08:45:27;3.60;;;1.10;;
15381;SDS011;7789;51.364;12.358;2023-12-20T08:50:30;3.30;;;1.00;;
15381;SDS011;7789;51.364;12.358;2023-12-20T08:55:34;4.00;;;1.30;;
15381;SDS011;7789;51.364;12.358;2023-12-20T09:00:39;4.53;;;1.10;;
15381;SDS011;7789;51.364;12.358;2023-12-20T09:05:43;4.80;;;1.30;;
15381;SDS011;7789;51.364;12.358;2023-12-20T09:10:46;3.67;;;1.27;;
15381;SDS011;7789;51.364;12.358;2023-12-20T09:15:51;1.43;;;1.00;;
15381;SDS011;7789;51.364;12.358;2023-12-20T09:20:55;3.77;;;1.33;;
15381;SDS011;7789;51.364;12.358;2023-12-20T09:25:58;5.60;;;1.37;;
15381;SDS011;7789;51.364;12.358;2023-12-20T09:31:04;3.63;;;1.30;;
15381;SDS011;7789;51.364;12.358;2023-12-20T09:36:08;2.87;;;1.03;;
15381;SDS011;7789;51.364;12.358;2023-12-20T09:41:12;3.70;;;1.20;;
15381;SDS011;7789;51.364;12.358;2023-12-20T09:46:17;4.30;;;2.03;;
15381;SDS011;7789;51.364;12.358;2023-12-20T09:51:25;5.00;;;1.60;;
15381;SDS011;7789;51.364;12.358;2023-12-20T09:56:29;4.13;;;1.40;;
15381;SDS011;7789;51.364;12.358;2023-12-20T10:01:34;6.87;;;1.20;;
15381;SDS011;7789;51.364;12.358;2023-12-20T10:06:39;4.17;;;1.77;;
15381;SDS011;7789;51.364;12.358;2023-12-20T10:11:43;4.20;;;1.70;;
15381;SDS011;7789;51.364;12.358;2023-12-20T10:16:49;3.63;;;1.67;;
15381;SDS011;7789;51.364;12.358;2023-12-20T10:21:53;3.80;;;1.53;;
15381;SDS011;7789;51.364;12.358;2023-12-20T10:27:02;5.07;;;2.30;;
15381;SDS011;7789;51.364;12.358;2023-12-20T10:32:24;3.73;;;1.43;;
15381;SDS011;7789;51.364;12.358;2023-12-20T10:37:29;5.13;;;1.30;;
15381;SDS011;7789;51.364;12.358;2023-12-20T10:42:32;5.50;;;1.50;;
15381;SDS011;7789;51.364;12.358;2023-12-20T10:47:39;5.47;;;1.60;;
15381;SDS011;7789;51.364;12.358;2023-12-20T10:52:44;4.20;;;2.00;;
15381;SDS011;7789;51.364;12.358;2023-12-20T10:57:49;6.17;;;1.43;;
15381;SDS011;7789;51.364;12.358;2023-12-20T11:02:55;5.17;;;1.30;;
15381;SDS011;7789;51.364;12.358;2023-12-20T11:08:06;3.97;;;1.43;;
15381;SDS011;7789;51.364;12.358;2023-12-20T11:13:12;4.67;;;0.93;;
15381;SDS011;7789;51.364;12.358;2023-12-20T11:18:29;2.83;;;1.10;;
15381;SDS011;7789;51.364;12.358;2023-12-20T11:23:33;7.50;;;2.10;;
15381;SDS011;7789;51.364;12.358;2023-12-20T11:28:37;4.03;;;1.30;;
15381;SDS011;7789;51.364;12.358;2023-12-20T11:33:42;2.57;;;1.13;;
15381;SDS011;7789;51.364;12.358;2023-12-20T11:38:56;8.57;;;1.40;;
15381;SDS011;7789;51.364;12.358;2023-12-20T11:44:01;4.40;;;1.40;;
15381;SDS011;7789;51.364;12.358;2023-12-20T11:49:08;5.47;;;1.93;;
15381;SDS011;7789;51.364;12.358;2023-12-20T11:54:12;4.33;;;1.20;;
15381;SDS011;7789;51.364;12.358;2023-12-20T11:59:17;4.00;;;1.00;;
15381;SDS011;7789;51.364;12.358;2023-12-20T12:04:26;7.20;;;1.40;;
15381;SDS011;7789;51.364;12.358;2023-12-20T12:09:33;4.67;;;1.63;;
15381;SDS011;7789;51.364;12.358;2023-12-20T12:14:37;5.53;;;1.40;;
15381;SDS011;7789;51.364;12.358;2023-12-20T12:19:43;6.33;;;1.20;;
15381;SDS011;7789;51.364;12.358;2023-12-20T12:24:47;5.33;;;1.67;;
15381;SDS011;7789;51.364;12.358;2023-12-20T12:30:01;3.30;;;1.07;;
15381;SDS011;7789;51.364;12.358;2023-12-20T12:35:07;5.83;;;1.20;;
15381;SDS011;7789;51.364;12.358;2023-12-20T12:40:12;4.53;;;1.43;;
15381;SDS011;7789;51.364;12.358;2023-12-20T12:45:16;5.23;;;1.60;;
15381;SDS011;7789;51.364;12.358;2023-12-20T12:50:21;3.60;;;1.10;;
15381;SDS011;7789;51.364;12.358;2023-12-20T12:55:25;3.90;;;1.13;;
15381;SDS011;7789;51.364;12.358;2023-12-20T13:00:28;3.17;;;1.20;;
15381;SDS011;7789;51.364;12.358;2023-12-20T13:05:33;6.97;;;1.53;;
15381;SDS011;7789;51.364;12.358;2023-12-20T13:10:41;3.60;;;1.33;;
15381;SDS011;7789;51.364;12.358;2023-12-20T13:15:52;4.23;;;1.30;;
15381;SDS011;7789;51.364;12.358;2023-12-20T13:21:04;4.43;;;1.30;;
15381;SDS011;7789;51.364;12.358;2023-12-20T13:26:07;4.87;;;1.30;;
15381;SDS011;7789;51.364;12.358;2023-12-20T13:31:11;3.47;;;1.10;;
15381;SDS011;7789;51.364;12.358;2023-12-20T13:36:32;3.23;;;1.27;;
15381;SDS011;7789;51.364;12.358;2023-12-20T13:47:05;4.00;;;1.23;;
15381;SDS011;7789;51.364;12.358;2023-12-20T13:52:14;3.87;;;1.10;;
15381;SDS011;7789;51.364;12.358;2023-12-20T13:57:18;2.00;;;1.00;;
15381;SDS011;7789;51.364;12.358;2023-12-20T14:02:41;3.53;;;1.13;;
15381;SDS011;7789;51.364;12.358;2023-12-20T14:07:46;2.93;;;1.20;;
15381;SDS011;7789;51.364;12.358;2023-12-20T14:12:50;3.83;;;1.20;;
15381;SDS011;7789;51.364;12.358;2023-12-20T14:17:53;2.67;;;1.03;;
15381;SDS011;7789;51.364;12.358;2023-12-20T14:22:59;3.57;;;1.00;;
15381;SDS011;7789;51.364;12.358;2023-12-20T14:28:02;2.70;;;0.80;;
15381;SDS011;7789;51.364;12.358;2023-12-20T14:33:06;3.40;;;1.30;;
15381;SDS011;7789;51.364;12.358;2023-12-20T14:38:11;2.37;;;1.00;;
15381;SDS011;7789;51.364;12.358;2023-12-20T14:43:16;2.97;;;1.07;;
15381;SDS011;7789;51.364;12.358;2023-12-20T14:48:20;2.70;;;1.00;;
15381;SDS011;7789;51.364;12.358;2023-12-20T14:53:25;2.00;;;0.97;;
15381;SDS011;7789;51.364;12.358;2023-12-20T14:58:29;2.60;;;1.00;;
15381;SDS011;7789;51.364;12.358;2023-12-20T15:03:33;2.90;;;1.10;;
15381;SDS011;7789;51.364;12.358;2023-12-20T15:08:38;2.20;;;0.83;;
15381;SDS011;7789;51.364;12.358;2023-12-20T15:13:41;2.17;;;0.80;;
15381;SDS011;7789;51.364;12.358;2023-12-20T15:18:45;3.27;;;1.00;;
15381;SDS011;7789;51.364;12.358;2023-12-20T15:23:51;2.07;;;0.83;;
15381;SDS011;7789;51.364;12.358;2023-12-20T15:28:55;2.43;;;0.90;;
15381;SDS011;7789;51.364;12.358;2023-12-20T15:33:58;2.27;;;0.87;;
15381;SDS011;7789;51.364;12.358;2023-12-20T15:39:04;4.13;;;1.03;;
15381;SDS011;7789;51.364;12.358;2023-12-20T15:44:08;2.50;;;0.97;;
15381;SDS011;7789;51.364;12.358;2023-12-20T15:49:12;3.77;;;1.13;;
15381;SDS011;7789;51.364;12.358;2023-12-20T15:54:19;2.60;;;1.20;;
15381;SDS011;7789;51.364;12.358;2023-12-20T15:59:23;3.13;;;1.00;;
15381;SDS011;7789;51.364;12.358;2023-12-20T16:04:26;1.93;;;1.10;;
15381;SDS011;7789;51.364;12.358;2023-12-20T16:09:31;2.90;;;1.20;;
15381;SDS011;7789;51.364;12.358;2023-12-20T16:14:34;2.30;;;1.00;;
15381;SDS011;7789;51.364;12.358;2023-12-20T16:19:39;3.13;;;1.10;;
15381;SDS011;7789;51.364;12.358;2023-12-20T16:24:44;2.27;;;1.00;;
15381;SDS011;7789;51.364;12.358;2023-12-20T16:29:48;1.63;;;1.10;;
15381;SDS011;7789;51.364;12.358;2023-12-20T16:34:52;3.57;;;1.03;;
15381;SDS011;7789;51.364;12.358;2023-12-20T16:39:56;2.17;;;1.27;;
15381;SDS011;7789;51.364;12.358;2023-12-20T16:45:00;3.20;;;1.50;;
15381;SDS011;7789;51.364;12.358;2023-12-20T16:50:04;4.03;;;1.90;;
15381;SDS011;7789;51.364;12.358;2023-12-20T16:55:10;8.63;;;4.10;;
15381;SDS011;7789;51.364;12.358;2023-12-20T17:00:14;4.50;;;2.80;;
15381;SDS011;7789;51.364;12.358;2023-12-20T17:05:19;2.90;;;1.80;;
15381;SDS011;7789;51.364;12.358;2023-12-20T17:10:24;3.50;;;1.70;;
15381;SDS011;7789;51.364;12.358;2023-12-20T17:15:27;3.37;;;1.90;;
15381;SDS011;7789;51.364;12.358;2023-12-20T17:20:31;3.77;;;2.30;;
15381;SDS011;7789;51.364;12.358;2023-12-20T17:25:36;3.30;;;1.80;;
15381;SDS011;7789;51.364;12.358;2023-12-20T17:30:41;1.90;;;1.70;;
15381;SDS011;7789;51.364;12.358;2023-12-20T17:35:48;2.97;;;1.67;;
15381;SDS011;7789;51.364;12.358;2023-12-20T17:40:56;2.30;;;1.83;;
15381;SDS011;7789;51.364;12.358;2023-12-20T17:46:00;2.50;;;1.70;;
15381;SDS011;7789;51.364;12.358;2023-12-20T17:51:03;2.50;;;1.20;;
15381;SDS011;7789;51.364;12.358;2023-12-20T17:56:08;2.80;;;1.27;;
15381;SDS011;7789;51.364;12.358;2023-12-20T18:01:11;2.43;;;1.33;;
15381;SDS011;7789;51.364;12.358;2023-12-20T18:06:16;4.40;;;1.60;;
15381;SDS011;7789;51.364;12.358;2023-12-20T18:11:21;2.90;;;1.83;;
15381;SDS011;7789;51.364;12.358;2023-12-20T18:16:24;2.00;;;1.40;;
15381;SDS011;7789;51.364;12.358;2023-12-20T18:21:28;3.00;;;1.67;;
15381;SDS011;7789;51.364;12.358;2023-12-20T18:26:33;3.10;;;1.70;;
15381;SDS011;7789;51.364;12.358;2023-12-20T18:31:40;2.77;;;1.60;;
15381;SDS011;7789;51.364;12.358;2023-12-20T18:36:44;2.90;;;1.87;;
15381;SDS011;7789;51.364;12.358;2023-12-20T18:41:51;5.33;;;2.90;;
15381;SDS011;7789;51.364;12.358;2023-12-20T18:46:54;4.80;;;2.57;;
15381;SDS011;7789;51.364;12.358;2023-12-20T18:51:58;5.93;;;3.97;;
15381;SDS011;7789;51.364;12.358;2023-12-20T18:57:03;3.83;;;2.60;;
15381;SDS011;7789;51.364;12.358;2023-12-20T19:02:08;6.00;;;2.17;;
15381;SDS011;7789;51.364;12.358;2023-12-20T19:07:14;3.43;;;2.20;;
15381;SDS011;7789;51.364;12.358;2023-12-20T19:12:19;4.43;;;2.00;;
15381;SDS011;7789;51.364;12.358;2023-12-20T19:17:22;5.13;;;2.30;;
15381;SDS011;7789;51.364;12.358;2023-12-20T19:22:27;5.83;;;3.63;;
15381;SDS011;7789;51.364;12.358;2023-12-20T19:27:35;5.17;;;2.40;;
15381;SDS011;7789;51.364;12.358;2023-12-20T19:32:38;4.60;;;2.10;;
15381;SDS011;7789;51.364;12.358;2023-12-20T19:37:42;2.63;;;1.60;;
15381;SDS011;7789;51.364;12.358;2023-12-20T19:42:50;3.13;;;1.73;;
15381;SDS011;7789;51.364;12.358;2023-12-20T19:47:53;4.13;;;1.90;;
15381;SDS011;7789;51.364;12.358;2023-12-20T19:52:57;2.30;;;1.30;;
15381;SDS011;7789;51.364;12.358;2023-12-20T19:58:01;2.80;;;1.60;;
15381;SDS011;7789;51.364;12.358;2023-12-20T20:03:05;2.90;;;1.20;;
15381;SDS011;7789;51.364;12.358;2023-12-20T20:08:09;2.77;;;1.43;;
15381;SDS011;7789;51.364;12.358;2023-12-20T20:13:13;1.70;;;1.30;;
15381;SDS011;7789;51.364;12.358;2023-12-20T20:18:17;2.80;;;1.17;;
15381;SDS011;7789;51.364;12.358;2023-12-20T20:23:21;1.53;;;1.20;;
15381;SDS011;7789;51.364;12.358;2023-12-20T20:28:26;2.93;;;1.20;;
15381;SDS011;7789;51.364;12.358;2023-12-20T20:33:30;3.77;;;1.40;;
15381;SDS011;7789;51.364;12.358;2023-12-20T20:38:34;2.70;;;1.13;;
15381;SDS011;7789;51.364;12.358;2023-12-20T20:43:39;3.47;;;1.43;;
15381;SDS011;7789;51.364;12.358;2023-12-20T20:48:42;3.03;;;1.30;;
15381;SDS011;7789;51.364;12.358;2023-12-20T20:53:52;2.93;;;1.57;;
15381;SDS011;7789;51.364;12.358;2023-12-20T20:59:13;3.30;;;1.30;;
15381;SDS011;7789;51.364;12.358;2023-12-20T21:04:17;3.30;;;1.50;;
15381;SDS011;7789;51.364;12.358;2023-12-20T21:09:20;5.30;;;1.53;;
15381;SDS011;7789;51.364;12.358;2023-12-20T21:14:25;2.87;;;1.27;;
15381;SDS011;7789;51.364;12.358;2023-12-20T21:19:28;3.20;;;1.27;;
15381;SDS011;7789;51.364;12.358;2023-12-20T21:24:32;2.17;;;1.10;;
15381;SDS011;7789;51.364;12.358;2023-12-20T21:29:38;2.17;;;1.00;;
15381;SDS011;7789;51.364;12.358;2023-12-20T21:34:42;1.10;;;0.90;;
15381;SDS011;7789;51.364;12.358;2023-12-20T21:39:45;1.87;;;0.90;;
15381;SDS011;7789;51.364;12.358;2023-12-20T21:44:50;1.17;;;1.00;;
15381;SDS011;7789;51.364;12.358;2023-12-20T21:49:53;1.37;;;0.70;;
15381;SDS011;7789;51.364;12.358;2023-12-20T21:54:57;0.77;;;0.70;;
15381;SDS011;7789;51.364;12.358;2023-12-20T22:00:02;1.20;;;0.60;;
15381;SDS011;7789;51.364;12.358;2023-12-20T22:05:06;2.20;;;0.93;;
15381;SDS011;7789;51.364;12.358;2023-12-20T22:10:09;0.90;;;0.50;;
15381;SDS011;7789;51.364;12.358;2023-12-20T22:15:15;1.90;;;0.83;;
15381;SDS011;7789;51.364;12.358;2023-12-20T22:20:18;1.70;;;0.60;;
15381;SDS011;7789;51.364;12.358;2023-12-20T22:25:22;0.70;;;0.50;;
15381;SDS011;7789;51.364;12.358;2023-12-20T22:30:33;2.53;;;0.77;;
15381;SDS011;7789;51.364;12.358;2023-12-20T22:35:36;1.77;;;0.50;;
15381;SDS011;7789;51.364;12.358;2023-12-20T22:40:40;1.10;;;0.50;;
15381;SDS011;7789;51.364;12.358;2023-12-20T22:45:45;1.63;;;0.50;;
15381;SDS011;7789;51.364;12.358;2023-12-20T22:50:49;1.33;;;0.50;;
15381;SDS011;7789;51.364;12.358;2023-12-20T22:55:52;1.30;;;0.63;;
15381;SDS011;7789;51.364;12.358;2023-12-20T23:00:57;1.10;;;0.50;;
15381;SDS011;7789;51.364;12.358;2023-12-20T23:06:02;1.30;;;0.70;;
15381;SDS011;7789;51.364;12.358;2023-12-20T23:11:05;0.87;;;0.40;;
15381;SDS011;7789;51.364;12.358;2023-12-20T23:16:10;2.17;;;0.70;;
15381;SDS011;7789;51.364;12.358;2023-12-20T23:21:13;1.00;;;0.70;;
15381;SDS011;7789;51.364;12.358;2023-12-20T23:26:17;2.03;;;0.53;;
15381;SDS011;7789;51.364;12.358;2023-12-20T23:31:23;1.77;;;0.70;;
15381;SDS011;7789;51.364;12.358;2023-12-20T23:36:27;1.80;;;0.60;;
15381;SDS011;7789;51.364;12.358;2023-12-20T23:41:31;1.00;;;0.50;;
15381;SDS011;7789;51.364;12.358;2023-12-20T23:46:35;0.90;;;0.60;;
15381;SDS011;7789;51.364;12.358;2023-12-20T23:51:39;2.27;;;0.70;;
15381;SDS011;7789;51.364;12.358;2023-12-20T23:56:42;0.90;;;0.40;;
